sensor_id;sensor_type;location;lat;lon;timestamp;pressure;altitude;pressure_sealevel;temperature;humidity
54850;BME280;47660;51.334;12.396;2023-04-08T00:00:33;100613.66;;;19.95;44.49
54850;BME280;47660;51.334;12.396;2023-04-08T00:02:58;100615.97;;;19.62;44.29
54850;BME280;47660;51.334;12.396;2023-04-08T00:05:25;100610.81;;;20.33;42.92
54850;BME280;47660;51.334;12.396;2023-04-08T00:07:51;100609.31;;;19.56;44.32
54850;BME280;47660;51.334;12.396;2023-04-08T00:10:17;100607.50;;;19.75;44.40
54850;BME280;47660;51.334;12.396;2023-04-08T00:12:42;100612.50;;;20.34;43.03
54850;BME280;47660;51.334;12.396;2023-04-08T00:15:08;100611.53;;;19.33;45.57
54850;BME280;47660;51.334;12.396;2023-04-08T00:17:33;100612.28;;;19.53;45.18
54850;BME280;47660;51.334;12.396;2023-04-08T00:19:58;100605.50;;;20.41;43.17
54850;BME280;47660;51.334;12.396;2023-04-08T00:22:24;100615.66;;;19.93;43.95
54850;BME280;47660;51.334;12.396;2023-04-08T00:24:50;100598.63;;;19.65;44.38
54850;BME280;47660;51.334;12.396;2023-04-08T00:27:18;100603.88;;;19.38;44.65
54850;BME280;47660;51.334;12.396;2023-04-08T00:29:43;100603.03;;;19.84;44.31
54850;BME280;47660;51.334;12.396;2023-04-08T00:32:08;100613.34;;;19.42;45.21
54850;BME280;47660;51.334;12.396;2023-04-08T00:34:36;100609.81;;;19.98;45.73
54850;BME280;47660;51.334;12.396;2023-04-08T00:37:04;100615.09;;;18.86;46.99
54850;BME280;47660;51.334;12.396;2023-04-08T00:39:29;100613.53;;;19.97;44.41
54850;BME280;47660;51.334;12.396;2023-04-08T00:41:55;100603.66;;;19.78;44.59
54850;BME280;47660;51.334;12.396;2023-04-08T00:44:21;100618.59;;;17.88;48.34
54850;BME280;47660;51.334;12.396;2023-04-08T00:46:47;100611.41;;;18.97;46.40
54850;BME280;47660;51.334;12.396;2023-04-08T00:49:12;100606.88;;;18.78;46.62
54850;BME280;47660;51.334;12.396;2023-04-08T00:51:41;100614.41;;;18.35;48.38
54850;BME280;47660;51.334;12.396;2023-04-08T00:54:06;100609.13;;;19.40;45.72
54850;BME280;47660;51.334;12.396;2023-04-08T00:56:32;100612.03;;;20.21;44.24
54850;BME280;47660;51.334;12.396;2023-04-08T00:59:00;100611.41;;;19.35;45.90
54850;BME280;47660;51.334;12.396;2023-04-08T01:01:41;100618.91;;;19.69;45.86
54850;BME280;47660;51.334;12.396;2023-04-08T01:04:21;100606.72;;;19.93;45.09
54850;BME280;47660;51.334;12.396;2023-04-08T01:06:56;100607.56;;;19.65;44.53
54850;BME280;47660;51.334;12.396;2023-04-08T01:09:31;100606.56;;;20.12;44.55
54850;BME280;47660;51.334;12.396;2023-04-08T01:11:58;100604.44;;;20.16;44.52
54850;BME280;47660;51.334;12.396;2023-04-08T01:14:28;100604.97;;;19.08;46.22
54850;BME280;47660;51.334;12.396;2023-04-08T01:16:57;100611.97;;;20.30;44.38
54850;BME280;47660;51.334;12.396;2023-04-08T01:19:31;100619.91;;;19.86;45.85
54850;BME280;47660;51.334;12.396;2023-04-08T01:22:43;100615.63;;;18.90;46.68
54850;BME280;47660;51.334;12.396;2023-04-08T01:25:09;100615.50;;;19.39;46.36
54850;BME280;47660;51.334;12.396;2023-04-08T01:27:39;100616.16;;;19.13;46.30
54850;BME280;47660;51.334;12.396;2023-04-08T01:30:06;100619.75;;;19.97;45.19
54850;BME280;47660;51.334;12.396;2023-04-08T01:32:33;100620.78;;;18.53;47.66
54850;BME280;47660;51.334;12.396;2023-04-08T01:34:59;100618.19;;;19.39;45.45
54850;BME280;47660;51.334;12.396;2023-04-08T01:37:27;100617.41;;;18.51;47.95
54850;BME280;47660;51.334;12.396;2023-04-08T01:39:56;100611.66;;;19.41;47.11
54850;BME280;47660;51.334;12.396;2023-04-08T01:42:27;100616.50;;;18.80;47.60
54850;BME280;47660;51.334;12.396;2023-04-08T01:44:55;100616.94;;;19.33;46.53
54850;BME280;47660;51.334;12.396;2023-04-08T01:47:21;100628.44;;;18.58;47.99
54850;BME280;47660;51.334;12.396;2023-04-08T01:49:50;100618.41;;;18.01;49.38
54850;BME280;47660;51.334;12.396;2023-04-08T01:52:17;100615.41;;;19.86;46.57
54850;BME280;47660;51.334;12.396;2023-04-08T01:54:47;100613.75;;;19.48;45.32
54850;BME280;47660;51.334;12.396;2023-04-08T01:57:23;100614.81;;;20.11;45.42
54850;BME280;47660;51.334;12.396;2023-04-08T01:59:51;100618.81;;;19.88;45.37
54850;BME280;47660;51.334;12.396;2023-04-08T02:02:19;100615.44;;;19.77;46.22
54850;BME280;47660;51.334;12.396;2023-04-08T02:04:46;100624.78;;;18.30;47.62
54850;BME280;47660;51.334;12.396;2023-04-08T02:07:13;100619.53;;;18.48;48.68
54850;BME280;47660;51.334;12.396;2023-04-08T02:09:38;100607.34;;;18.53;47.59
54850;BME280;47660;51.334;12.396;2023-04-08T02:12:04;100607.19;;;18.65;47.16
54850;BME280;47660;51.334;12.396;2023-04-08T02:14:30;100606.00;;;18.87;47.40
54850;BME280;47660;51.334;12.396;2023-04-08T02:17:04;100603.81;;;18.14;49.15
54850;BME280;47660;51.334;12.396;2023-04-08T02:19:47;100602.78;;;19.59;46.47
54850;BME280;47660;51.334;12.396;2023-04-08T02:22:24;100607.41;;;19.01;47.07
54850;BME280;47660;51.334;12.396;2023-04-08T02:24:54;100608.19;;;20.05;45.23
54850;BME280;47660;51.334;12.396;2023-04-08T02:27:22;100611.91;;;20.40;44.98
54850;BME280;47660;51.334;12.396;2023-04-08T02:29:49;100605.72;;;19.38;46.09
54850;BME280;47660;51.334;12.396;2023-04-08T02:32:19;100614.63;;;19.48;45.63
54850;BME280;47660;51.334;12.396;2023-04-08T02:34:46;100617.00;;;18.36;47.75
54850;BME280;47660;51.334;12.396;2023-04-08T02:37:15;100612.09;;;18.89;46.24
54850;BME280;47660;51.334;12.396;2023-04-08T02:39:41;100609.94;;;19.50;45.07
54850;BME280;47660;51.334;12.396;2023-04-08T02:42:06;100613.97;;;19.64;44.30
54850;BME280;47660;51.334;12.396;2023-04-08T02:44:34;100616.78;;;18.87;45.58
54850;BME280;47660;51.334;12.396;2023-04-08T02:46:59;100614.34;;;19.04;45.81
54850;BME280;47660;51.334;12.396;2023-04-08T02:49:25;100620.25;;;19.17;45.85
54850;BME280;47660;51.334;12.396;2023-04-08T02:51:50;100623.00;;;19.07;45.63
54850;BME280;47660;51.334;12.396;2023-04-08T02:54:16;100613.00;;;19.55;44.96
54850;BME280;47660;51.334;12.396;2023-04-08T02:56:41;100621.50;;;19.33;45.27
54850;BME280;47660;51.334;12.396;2023-04-08T02:59:07;100616.78;;;18.97;45.83
54850;BME280;47660;51.334;12.396;2023-04-08T03:01:32;100621.44;;;19.05;45.84
54850;BME280;47660;51.334;12.396;2023-04-08T03:03:57;100627.09;;;17.84;49.55
54850;BME280;47660;51.334;12.396;2023-04-08T03:06:25;100618.69;;;19.24;46.02
54850;BME280;47660;51.334;12.396;2023-04-08T03:08:51;100615.00;;;19.25;46.51
54850;BME280;47660;51.334;12.396;2023-04-08T03:11:18;100623.41;;;19.50;45.25
54850;BME280;47660;51.334;12.396;2023-04-08T03:13:43;100632.16;;;19.24;46.20
54850;BME280;47660;51.334;12.396;2023-04-08T03:16:10;100618.69;;;19.52;45.77
54850;BME280;47660;51.334;12.396;2023-04-08T03:18:37;100625.22;;;19.78;45.75
54850;BME280;47660;51.334;12.396;2023-04-08T03:21:02;100623.16;;;19.99;44.20
54850;BME280;47660;51.334;12.396;2023-04-08T03:23:27;100619.44;;;19.44;45.42
54850;BME280;47660;51.334;12.396;2023-04-08T03:25:55;100626.78;;;19.52;45.30
54850;BME280;47660;51.334;12.396;2023-04-08T03:28:23;100627.97;;;19.68;45.14
54850;BME280;47660;51.334;12.396;2023-04-08T03:30:51;100629.75;;;19.21;46.15
54850;BME280;47660;51.334;12.396;2023-04-08T03:33:19;100625.19;;;19.59;45.63
54850;BME280;47660;51.334;12.396;2023-04-08T03:35:44;100636.47;;;19.07;46.98
54850;BME280;47660;51.334;12.396;2023-04-08T03:38:12;100637.00;;;19.21;46.38
54850;BME280;47660;51.334;12.396;2023-04-08T03:40:38;100639.34;;;19.34;45.61
54850;BME280;47660;51.334;12.396;2023-04-08T03:43:03;100640.59;;;19.02;46.99
54850;BME280;47660;51.334;12.396;2023-04-08T03:45:30;100641.16;;;19.05;46.93
54850;BME280;47660;51.334;12.396;2023-04-08T03:47:56;100643.22;;;19.59;45.48
54850;BME280;47660;51.334;12.396;2023-04-08T03:50:21;100657.88;;;18.10;48.47
54850;BME280;47660;51.334;12.396;2023-04-08T03:52:47;100652.00;;;19.23;46.20
54850;BME280;47660;51.334;12.396;2023-04-08T03:55:12;100660.19;;;18.54;48.45
54850;BME280;47660;51.334;12.396;2023-04-08T03:57:38;100652.25;;;19.40;46.42
54850;BME280;47660;51.334;12.396;2023-04-08T04:00:03;100657.56;;;19.22;46.57
54850;BME280;47660;51.334;12.396;2023-04-08T04:02:34;100659.56;;;19.20;46.83
54850;BME280;47660;51.334;12.396;2023-04-08T04:04:59;100646.38;;;19.17;47.16
54850;BME280;47660;51.334;12.396;2023-04-08T04:07:25;100653.19;;;19.11;46.69
54850;BME280;47660;51.334;12.396;2023-04-08T04:09:50;100645.78;;;19.88;45.71
54850;BME280;47660;51.334;12.396;2023-04-08T04:12:18;100652.59;;;20.11;45.07
54850;BME280;47660;51.334;12.396;2023-04-08T04:14:43;100652.50;;;19.47;45.97
54850;BME280;47660;51.334;12.396;2023-04-08T04:17:09;100651.19;;;19.13;47.10
54850;BME280;47660;51.334;12.396;2023-04-08T04:19:34;100651.50;;;18.80;47.69
54850;BME280;47660;51.334;12.396;2023-04-08T04:22:00;100663.28;;;18.99;47.45
54850;BME280;47660;51.334;12.396;2023-04-08T04:24:25;100665.53;;;18.94;47.88
54850;BME280;47660;51.334;12.396;2023-04-08T04:26:50;100662.91;;;19.32;47.06
54850;BME280;47660;51.334;12.396;2023-04-08T04:29:18;100665.16;;;19.36;46.63
54850;BME280;47660;51.334;12.396;2023-04-08T04:31:43;100674.72;;;19.58;45.83
54850;BME280;47660;51.334;12.396;2023-04-08T04:34:10;100665.72;;;19.40;46.86
54850;BME280;47660;51.334;12.396;2023-04-08T04:36:35;100673.13;;;19.28;46.95
54850;BME280;47660;51.334;12.396;2023-04-08T04:39:01;100680.84;;;18.83;47.81
54850;BME280;47660;51.334;12.396;2023-04-08T04:41:26;100672.91;;;18.92;47.48
54850;BME280;47660;51.334;12.396;2023-04-08T04:43:52;100671.41;;;19.37;46.47
54850;BME280;47660;51.334;12.396;2023-04-08T04:46:18;100674.31;;;19.53;46.88
54850;BME280;47660;51.334;12.396;2023-04-08T04:48:43;100681.91;;;19.30;47.19
54850;BME280;47660;51.334;12.396;2023-04-08T04:51:08;100676.78;;;19.37;47.07
54850;BME280;47660;51.334;12.396;2023-04-08T04:53:34;100686.47;;;19.29;47.20
54850;BME280;47660;51.334;12.396;2023-04-08T04:56:02;100687.53;;;19.84;46.00
54850;BME280;47660;51.334;12.396;2023-04-08T04:58:31;100691.03;;;19.19;47.24
54850;BME280;47660;51.334;12.396;2023-04-08T05:00:56;100687.72;;;19.35;47.09
54850;BME280;47660;51.334;12.396;2023-04-08T05:03:24;100688.63;;;19.16;46.70
54850;BME280;47660;51.334;12.396;2023-04-08T05:05:53;100691.06;;;18.70;49.34
54850;BME280;47660;51.334;12.396;2023-04-08T05:08:19;100689.38;;;18.30;48.90
54850;BME280;47660;51.334;12.396;2023-04-08T05:10:45;100691.25;;;17.57;50.92
54850;BME280;47660;51.334;12.396;2023-04-08T05:13:11;100698.66;;;19.34;47.17
54850;BME280;47660;51.334;12.396;2023-04-08T05:15:37;100701.09;;;19.17;47.34
54850;BME280;47660;51.334;12.396;2023-04-08T05:18:02;100696.19;;;19.50;46.22
54850;BME280;47660;51.334;12.396;2023-04-08T05:20:30;100700.44;;;19.91;45.65
54850;BME280;47660;51.334;12.396;2023-04-08T05:22:56;100704.94;;;19.62;45.74
54850;BME280;47660;51.334;12.396;2023-04-08T05:25:24;100712.22;;;19.80;47.09
54850;BME280;47660;51.334;12.396;2023-04-08T05:27:52;100716.44;;;18.77;47.27
54850;BME280;47660;51.334;12.396;2023-04-08T05:30:20;100715.06;;;19.40;47.59
54850;BME280;47660;51.334;12.396;2023-04-08T05:32:47;100726.22;;;19.18;47.29
54850;BME280;47660;51.334;12.396;2023-04-08T05:35:15;100725.75;;;19.22;46.61
54850;BME280;47660;51.334;12.396;2023-04-08T05:37:43;100722.63;;;18.29;48.92
54850;BME280;47660;51.334;12.396;2023-04-08T05:42:37;100719.34;;;18.05;50.21
54850;BME280;47660;51.334;12.396;2023-04-08T05:45:03;100721.81;;;18.67;48.81
54850;BME280;47660;51.334;12.396;2023-04-08T05:47:29;100724.72;;;18.15;49.19
54850;BME280;47660;51.334;12.396;2023-04-08T05:49:54;100720.44;;;19.03;48.32
54850;BME280;47660;51.334;12.396;2023-04-08T05:52:20;100722.38;;;19.10;48.13
54850;BME280;47660;51.334;12.396;2023-04-08T05:54:45;100718.69;;;19.11;48.28
54850;BME280;47660;51.334;12.396;2023-04-08T05:57:14;100719.81;;;19.09;47.71
54850;BME280;47660;51.334;12.396;2023-04-08T05:59:40;100720.19;;;19.43;47.30
54850;BME280;47660;51.334;12.396;2023-04-08T06:02:06;100718.69;;;19.21;47.17
54850;BME280;47660;51.334;12.396;2023-04-08T06:04:32;100722.47;;;19.76;46.62
54850;BME280;47660;51.334;12.396;2023-04-08T06:07:00;100727.66;;;19.02;47.90
54850;BME280;47660;51.334;12.396;2023-04-08T06:09:27;100730.75;;;19.65;46.81
54850;BME280;47660;51.334;12.396;2023-04-08T06:11:52;100741.09;;;19.12;48.34
54850;BME280;47660;51.334;12.396;2023-04-08T06:14:18;100741.53;;;19.65;46.92
54850;BME280;47660;51.334;12.396;2023-04-08T06:16:44;100748.75;;;19.26;47.51
54850;BME280;47660;51.334;12.396;2023-04-08T06:19:10;100746.81;;;19.56;47.17
54850;BME280;47660;51.334;12.396;2023-04-08T06:21:36;100753.97;;;19.38;47.63
54850;BME280;47660;51.334;12.396;2023-04-08T06:24:03;100740.41;;;19.57;46.80
54850;BME280;47660;51.334;12.396;2023-04-08T06:26:29;100747.97;;;19.54;47.33
54850;BME280;47660;51.334;12.396;2023-04-08T06:28:55;100738.91;;;19.83;46.52
54850;BME280;47660;51.334;12.396;2023-04-08T06:31:20;100745.94;;;19.66;46.76
54850;BME280;47660;51.334;12.396;2023-04-08T06:33:46;100748.91;;;19.25;47.44
54850;BME280;47660;51.334;12.396;2023-04-08T06:36:11;100749.03;;;19.71;46.75
54850;BME280;47660;51.334;12.396;2023-04-08T06:38:37;100762.78;;;18.81;48.74
54850;BME280;47660;51.334;12.396;2023-04-08T06:41:03;100761.47;;;19.44;48.86
54850;BME280;47660;51.334;12.396;2023-04-08T06:43:29;100767.28;;;19.97;46.98
54850;BME280;47660;51.334;12.396;2023-04-08T06:45:57;100761.78;;;19.79;47.20
54850;BME280;47660;51.334;12.396;2023-04-08T06:48:23;100771.69;;;19.40;48.52
54850;BME280;47660;51.334;12.396;2023-04-08T06:50:58;100776.34;;;20.06;48.28
54850;BME280;47660;51.334;12.396;2023-04-08T06:53:25;100782.59;;;19.49;48.53
54850;BME280;47660;51.334;12.396;2023-04-08T06:55:51;100786.31;;;19.95;46.79
54850;BME280;47660;51.334;12.396;2023-04-08T06:58:16;100794.63;;;19.54;48.12
54850;BME280;47660;51.334;12.396;2023-04-08T07:00:42;100792.13;;;19.33;48.87
54850;BME280;47660;51.334;12.396;2023-04-08T07:03:10;100790.41;;;19.32;48.49
54850;BME280;47660;51.334;12.396;2023-04-08T07:05:36;100799.97;;;19.17;49.45
54850;BME280;47660;51.334;12.396;2023-04-08T07:08:01;100799.22;;;19.24;49.02
54850;BME280;47660;51.334;12.396;2023-04-08T07:10:29;100790.81;;;20.32;47.83
54850;BME280;47660;51.334;12.396;2023-04-08T07:12:55;100807.81;;;19.67;48.47
54850;BME280;47660;51.334;12.396;2023-04-08T07:15:20;100801.84;;;19.64;48.39
54850;BME280;47660;51.334;12.396;2023-04-08T07:17:46;100804.19;;;19.39;48.73
54850;BME280;47660;51.334;12.396;2023-04-08T07:20:12;100794.00;;;19.90;48.57
54850;BME280;47660;51.334;12.396;2023-04-08T07:22:40;100801.16;;;19.71;48.20
54850;BME280;47660;51.334;12.396;2023-04-08T07:25:06;100804.84;;;19.70;48.30
54850;BME280;47660;51.334;12.396;2023-04-08T07:27:34;100796.69;;;20.28;48.97
54850;BME280;47660;51.334;12.396;2023-04-08T07:30:00;100814.78;;;18.81;50.58
54850;BME280;47660;51.334;12.396;2023-04-08T07:32:25;100803.38;;;19.96;47.98
54850;BME280;47660;51.334;12.396;2023-04-08T07:34:51;100809.25;;;20.09;47.59
54850;BME280;47660;51.334;12.396;2023-04-08T07:37:17;100808.81;;;20.14;47.37
54850;BME280;47660;51.334;12.396;2023-04-08T07:39:44;100808.31;;;20.00;47.85
54850;BME280;47660;51.334;12.396;2023-04-08T07:42:12;100816.00;;;19.85;48.09
54850;BME280;47660;51.334;12.396;2023-04-08T07:44:38;100814.22;;;20.42;46.71
54850;BME280;47660;51.334;12.396;2023-04-08T07:47:08;100817.41;;;20.55;47.87
54850;BME280;47660;51.334;12.396;2023-04-08T07:49:33;100822.91;;;20.08;47.62
54850;BME280;47660;51.334;12.396;2023-04-08T07:51:59;100817.28;;;20.29;46.80
54850;BME280;47660;51.334;12.396;2023-04-08T07:54:27;100812.31;;;21.87;44.54
54850;BME280;47660;51.334;12.396;2023-04-08T07:56:52;100811.22;;;21.27;45.29
54850;BME280;47660;51.334;12.396;2023-04-08T07:59:17;100813.75;;;20.92;45.26
54850;BME280;47660;51.334;12.396;2023-04-08T08:01:43;100820.41;;;20.98;45.08
54850;BME280;47660;51.334;12.396;2023-04-08T08:04:08;100817.47;;;20.91;45.18
54850;BME280;47660;51.334;12.396;2023-04-08T08:06:34;100821.09;;;20.26;47.42
54850;BME280;47660;51.334;12.396;2023-04-08T08:09:01;100814.84;;;20.82;45.22
54850;BME280;47660;51.334;12.396;2023-04-08T08:11:26;100828.66;;;20.23;46.61
54850;BME280;47660;51.334;12.396;2023-04-08T08:13:52;100826.66;;;20.99;45.11
54850;BME280;47660;51.334;12.396;2023-04-08T08:16:18;100832.59;;;21.20;44.54
54850;BME280;47660;51.334;12.396;2023-04-08T08:18:43;100831.22;;;21.16;44.62
54850;BME280;47660;51.334;12.396;2023-04-08T08:21:09;100835.78;;;21.16;45.19
54850;BME280;47660;51.334;12.396;2023-04-08T08:23:35;100837.69;;;20.87;45.54
54850;BME280;47660;51.334;12.396;2023-04-08T08:26:06;100831.41;;;21.41;44.63
54850;BME280;47660;51.334;12.396;2023-04-08T08:28:34;100833.50;;;21.47;43.77
54850;BME280;47660;51.334;12.396;2023-04-08T08:30:59;100842.66;;;21.28;44.35
54850;BME280;47660;51.334;12.396;2023-04-08T08:33:25;100839.69;;;21.40;44.40
54850;BME280;47660;51.334;12.396;2023-04-08T08:35:51;100838.69;;;21.41;44.40
54850;BME280;47660;51.334;12.396;2023-04-08T08:38:16;100847.97;;;21.02;44.38
54850;BME280;47660;51.334;12.396;2023-04-08T08:40:43;100847.38;;;21.71;43.81
54850;BME280;47660;51.334;12.396;2023-04-08T08:43:09;100853.28;;;20.93;44.42
54850;BME280;47660;51.334;12.396;2023-04-08T08:45:39;100852.69;;;22.07;43.54
54850;BME280;47660;51.334;12.396;2023-04-08T08:48:05;100860.47;;;22.10;42.89
54850;BME280;47660;51.334;12.396;2023-04-08T08:50:31;100860.88;;;21.89;43.82
54850;BME280;47660;51.334;12.396;2023-04-08T08:52:57;100855.69;;;21.33;44.43
54850;BME280;47660;51.334;12.396;2023-04-08T08:55:22;100871.88;;;21.95;43.01
54850;BME280;47660;51.334;12.396;2023-04-08T08:57:51;100861.91;;;22.57;43.24
54850;BME280;47660;51.334;12.396;2023-04-08T09:00:30;100858.13;;;23.18;41.37
54850;BME280;47660;51.334;12.396;2023-04-08T09:02:55;100866.69;;;22.29;42.93
54850;BME280;47660;51.334;12.396;2023-04-08T09:05:21;100862.00;;;22.39;42.39
54850;BME280;47660;51.334;12.396;2023-04-08T09:07:49;100874.09;;;22.26;42.18
54850;BME280;47660;51.334;12.396;2023-04-08T09:10:14;100867.28;;;22.14;42.86
54850;BME280;47660;51.334;12.396;2023-04-08T09:12:53;100868.38;;;24.30;39.40
54850;BME280;47660;51.334;12.396;2023-04-08T09:15:23;100881.81;;;22.82;41.97
54850;BME280;47660;51.334;12.396;2023-04-08T09:17:48;100876.34;;;22.74;41.50
54850;BME280;47660;51.334;12.396;2023-04-08T09:20:17;100884.16;;;22.08;42.61
54850;BME280;47660;51.334;12.396;2023-04-08T09:25:28;100884.47;;;22.05;43.49
54850;BME280;47660;51.334;12.396;2023-04-08T09:27:54;100884.09;;;22.61;41.97
54850;BME280;47660;51.334;12.396;2023-04-08T09:30:24;100883.34;;;22.93;42.49
54850;BME280;47660;51.334;12.396;2023-04-08T09:32:52;100880.50;;;23.20;41.42
54850;BME280;47660;51.334;12.396;2023-04-08T09:35:19;100889.50;;;21.55;43.32
54850;BME280;47660;51.334;12.396;2023-04-08T09:37:45;100890.63;;;21.89;42.28
54850;BME280;47660;51.334;12.396;2023-04-08T09:40:14;100888.88;;;22.06;42.82
54850;BME280;47660;51.334;12.396;2023-04-08T09:42:44;100892.19;;;22.52;41.99
54850;BME280;47660;51.334;12.396;2023-04-08T09:45:17;100898.38;;;21.84;43.09
54850;BME280;47660;51.334;12.396;2023-04-08T09:47:59;100892.94;;;23.55;40.10
54850;BME280;47660;51.334;12.396;2023-04-08T09:50:31;100892.75;;;23.24;40.68
54850;BME280;47660;51.334;12.396;2023-04-08T09:53:08;100901.81;;;22.98;40.50
54850;BME280;47660;51.334;12.396;2023-04-08T09:55:35;100903.88;;;21.74;42.36
54850;BME280;47660;51.334;12.396;2023-04-08T09:58:15;100910.84;;;22.29;41.42
54850;BME280;47660;51.334;12.396;2023-04-08T10:00:48;100898.19;;;22.03;42.04
54850;BME280;47660;51.334;12.396;2023-04-08T10:03:28;100904.31;;;23.34;40.12
54850;BME280;47660;51.334;12.396;2023-04-08T10:05:54;100910.38;;;22.34;41.33
54850;BME280;47660;51.334;12.396;2023-04-08T10:08:26;100915.50;;;21.66;42.70
54850;BME280;47660;51.334;12.396;2023-04-08T10:10:53;100913.28;;;21.88;42.60
54850;BME280;47660;51.334;12.396;2023-04-08T10:13:19;100915.63;;;20.82;43.80
54850;BME280;47660;51.334;12.396;2023-04-08T10:15:47;100914.50;;;20.85;43.67
54850;BME280;47660;51.334;12.396;2023-04-08T10:23:05;100918.44;;;23.03;41.24
54850;BME280;47660;51.334;12.396;2023-04-08T10:25:38;100910.72;;;22.74;42.01
54850;BME280;47660;51.334;12.396;2023-04-08T10:30:45;100918.88;;;22.39;42.18
54850;BME280;47660;51.334;12.396;2023-04-08T10:35:52;100916.97;;;22.66;41.84
54850;BME280;47660;51.334;12.396;2023-04-08T10:38:20;100917.50;;;22.08;42.10
54850;BME280;47660;51.334;12.396;2023-04-08T10:40:47;100914.25;;;22.66;42.25
54850;BME280;47660;51.334;12.396;2023-04-08T10:43:14;100918.09;;;23.06;41.11
54850;BME280;47660;51.334;12.396;2023-04-08T10:45:41;100924.75;;;22.08;42.61
54850;BME280;47660;51.334;12.396;2023-04-08T10:50:43;100921.22;;;22.07;42.27
54850;BME280;47660;51.334;12.396;2023-04-08T10:53:09;100922.91;;;22.43;40.97
54850;BME280;47660;51.334;12.396;2023-04-08T10:55:34;100915.16;;;22.83;40.91
54850;BME280;47660;51.334;12.396;2023-04-08T10:58:07;100916.13;;;23.91;38.89
54850;BME280;47660;51.334;12.396;2023-04-08T11:00:38;100915.25;;;23.08;40.77
54850;BME280;47660;51.334;12.396;2023-04-08T11:03:06;100914.13;;;23.68;39.42
54850;BME280;47660;51.334;12.396;2023-04-08T11:05:32;100920.72;;;22.38;41.06
54850;BME280;47660;51.334;12.396;2023-04-08T11:07:59;100920.66;;;22.57;41.85
54850;BME280;47660;51.334;12.396;2023-04-08T11:10:25;100923.22;;;22.32;42.37
54850;BME280;47660;51.334;12.396;2023-04-08T11:12:55;100918.56;;;22.85;41.37
54850;BME280;47660;51.334;12.396;2023-04-08T11:15:21;100921.00;;;22.62;41.48
54850;BME280;47660;51.334;12.396;2023-04-08T11:17:47;100920.50;;;23.18;40.63
54850;BME280;47660;51.334;12.396;2023-04-08T11:20:16;100914.47;;;23.32;40.24
54850;BME280;47660;51.334;12.396;2023-04-08T11:22:44;100922.44;;;23.50;40.05
54850;BME280;47660;51.334;12.396;2023-04-08T11:25:10;100917.34;;;23.64;39.50
54850;BME280;47660;51.334;12.396;2023-04-08T11:27:36;100924.81;;;23.86;39.38
54850;BME280;47660;51.334;12.396;2023-04-08T11:30:02;100919.91;;;23.98;39.22
54850;BME280;47660;51.334;12.396;2023-04-08T11:32:35;100915.72;;;24.44;38.70
54850;BME280;47660;51.334;12.396;2023-04-08T11:35:03;100916.66;;;23.95;38.59
54850;BME280;47660;51.334;12.396;2023-04-08T11:37:39;100919.56;;;23.68;38.46
54850;BME280;47660;51.334;12.396;2023-04-08T11:40:06;100911.56;;;24.65;37.36
54850;BME280;47660;51.334;12.396;2023-04-08T11:42:34;100916.00;;;24.01;38.03
54850;BME280;47660;51.334;12.396;2023-04-08T11:45:11;100915.16;;;23.84;37.89
54850;BME280;47660;51.334;12.396;2023-04-08T11:47:36;100919.88;;;24.15;37.46
54850;BME280;47660;51.334;12.396;2023-04-08T11:50:03;100920.88;;;23.23;38.89
54850;BME280;47660;51.334;12.396;2023-04-08T11:52:45;100912.88;;;23.21;37.84
54850;BME280;47660;51.334;12.396;2023-04-08T11:55:24;100907.91;;;23.00;37.88
54850;BME280;47660;51.334;12.396;2023-04-08T11:57:50;100912.72;;;23.14;38.06
54850;BME280;47660;51.334;12.396;2023-04-08T12:00:20;100912.09;;;23.62;37.30
54850;BME280;47660;51.334;12.396;2023-04-08T12:02:48;100909.72;;;23.84;36.61
54850;BME280;47660;51.334;12.396;2023-04-08T12:05:15;100913.94;;;23.95;36.85
54850;BME280;47660;51.334;12.396;2023-04-08T12:07:42;100918.44;;;24.36;36.19
54850;BME280;47660;51.334;12.396;2023-04-08T12:10:08;100912.16;;;25.38;34.84
54850;BME280;47660;51.334;12.396;2023-04-08T12:12:37;100909.63;;;25.98;33.65
54850;BME280;47660;51.334;12.396;2023-04-08T12:15:03;100910.69;;;24.72;35.33
54850;BME280;47660;51.334;12.396;2023-04-08T12:17:29;100928.03;;;24.15;35.90
54850;BME280;47660;51.334;12.396;2023-04-08T12:19:58;100910.72;;;25.27;34.66
54850;BME280;47660;51.334;12.396;2023-04-08T12:22:23;100924.16;;;24.01;35.74
54850;BME280;47660;51.334;12.396;2023-04-08T12:24:51;100914.13;;;25.53;33.89
54850;BME280;47660;51.334;12.396;2023-04-08T12:27:17;100925.81;;;23.94;35.69
54850;BME280;47660;51.334;12.396;2023-04-08T12:29:42;100921.94;;;23.55;37.45
54850;BME280;47660;51.334;12.396;2023-04-08T12:32:08;100926.69;;;23.61;37.91
54850;BME280;47660;51.334;12.396;2023-04-08T12:34:34;100921.69;;;24.39;36.08
54850;BME280;47660;51.334;12.396;2023-04-08T12:36:59;100931.41;;;23.26;37.78
54850;BME280;47660;51.334;12.396;2023-04-08T12:39:25;100929.41;;;24.02;36.44
54850;BME280;47660;51.334;12.396;2023-04-08T12:41:53;100928.38;;;23.70;37.49
54850;BME280;47660;51.334;12.396;2023-04-08T12:44:22;100923.28;;;24.57;36.78
54850;BME280;47660;51.334;12.396;2023-04-08T12:46:47;100927.03;;;23.99;36.32
54850;BME280;47660;51.334;12.396;2023-04-08T12:49:13;100923.41;;;24.80;34.41
54850;BME280;47660;51.334;12.396;2023-04-08T12:51:39;100922.09;;;23.78;35.96
54850;BME280;47660;51.334;12.396;2023-04-08T12:54:05;100920.59;;;23.84;35.74
54850;BME280;47660;51.334;12.396;2023-04-08T12:56:31;100928.16;;;24.22;35.23
54850;BME280;47660;51.334;12.396;2023-04-08T12:58:58;100920.38;;;23.94;35.73